sensor_id;sensor_type;location;lat;lon;timestamp;temperature;humidity
48994;DHT22;34804;49.214;12.276;2023-02-07T00:00:47;-3270.00;89.70
48994;DHT22;34804;49.214;12.276;2023-02-07T00:03:15;-3270.10;90.00
48994;DHT22;34804;49.214;12.276;2023-02-07T00:05:42;-3270.10;89.30
48994;DHT22;34804;49.214;12.276;2023-02-07T00:08:09;-3270.00;89.60
48994;DHT22;34804;49.214;12.276;2023-02-07T00:10:35;-3270.00;89.80
48994;DHT22;34804;49.214;12.276;2023-02-07T00:13:02;-3270.00;89.70
48994;DHT22;34804;49.214;12.276;2023-02-07T00:15:32;-3270.00;89.60
48994;DHT22;34804;49.214;12.276;2023-02-07T00:17:58;-3269.90;89.10
48994;DHT22;34804;49.214;12.276;2023-02-07T00:20:25;-3269.80;89.30
48994;DHT22;34804;49.214;12.276;2023-02-07T00:22:52;-3269.90;89.60
48994;DHT22;34804;49.214;12.276;2023-02-07T00:25:20;-3269.90;89.50
48994;DHT22;34804;49.214;12.276;2023-02-07T00:27:48;-3269.90;89.90
48994;DHT22;34804;49.214;12.276;2023-02-07T00:30:15;-3269.90;90.10
48994;DHT22;34804;49.214;12.276;2023-02-07T00:32:42;-3269.90;89.40
48994;DHT22;34804;49.214;12.276;2023-02-07T00:35:08;-3269.80;89.60
48994;DHT22;34804;49.214;12.276;2023-02-07T00:37:35;-3269.80;89.60
48994;DHT22;34804;49.214;12.276;2023-02-07T00:40:02;-3269.80;89.20
48994;DHT22;34804;49.214;12.276;2023-02-07T00:42:29;-3269.70;89.10
48994;DHT22;34804;49.214;12.276;2023-02-07T00:44:56;-3269.70;89.20
48994;DHT22;34804;49.214;12.276;2023-02-07T00:47:23;-3269.60;89.10
48994;DHT22;34804;49.214;12.276;2023-02-07T00:49:50;-3269.60;89.20
48994;DHT22;34804;49.214;12.276;2023-02-07T00:52:16;-3269.50;89.00
48994;DHT22;34804;49.214;12.276;2023-02-07T00:54:43;-3269.40;89.00
48994;DHT22;34804;49.214;12.276;2023-02-07T00:57:10;-3269.50;89.40
48994;DHT22;34804;49.214;12.276;2023-02-07T00:59:37;-3269.50;89.30
48994;DHT22;34804;49.214;12.276;2023-02-07T01:02:04;-3269.50;89.20
48994;DHT22;34804;49.214;12.276;2023-02-07T01:04:31;-3269.40;89.10
48994;DHT22;34804;49.214;12.276;2023-02-07T01:06:57;-3269.40;89.30
48994;DHT22;34804;49.214;12.276;2023-02-07T01:09:24;-3269.40;89.50
48994;DHT22;34804;49.214;12.276;2023-02-07T01:11:51;-3269.50;89.40
48994;DHT22;34804;49.214;12.276;2023-02-07T01:14:18;-3269.40;89.40
48994;DHT22;34804;49.214;12.276;2023-02-07T01:16:44;-3269.40;89.30
48994;DHT22;34804;49.214;12.276;2023-02-07T01:19:11;-3269.30;89.00
48994;DHT22;34804;49.214;12.276;2023-02-07T01:21:39;-3269.20;89.10
48994;DHT22;34804;49.214;12.276;2023-02-07T01:24:07;-3269.10;88.70
48994;DHT22;34804;49.214;12.276;2023-02-07T01:26:34;-3269.10;88.50
48994;DHT22;34804;49.214;12.276;2023-02-07T01:29:02;-3269.00;88.80
48994;DHT22;34804;49.214;12.276;2023-02-07T01:31:29;-3269.10;89.60
48994;DHT22;34804;49.214;12.276;2023-02-07T01:33:58;-3269.20;89.90
48994;DHT22;34804;49.214;12.276;2023-02-07T01:36:27;-3269.20;89.80
48994;DHT22;34804;49.214;12.276;2023-02-07T01:38:55;-3269.20;89.60
48994;DHT22;34804;49.214;12.276;2023-02-07T01:41:24;-3269.10;89.00
48994;DHT22;34804;49.214;12.276;2023-02-07T01:43:59;-3269.10;89.20
48994;DHT22;34804;49.214;12.276;2023-02-07T01:46:26;-3269.10;89.20
48994;DHT22;34804;49.214;12.276;2023-02-07T01:48:56;-3269.20;88.80
48994;DHT22;34804;49.214;12.276;2023-02-07T01:51:25;-3269.00;88.50
48994;DHT22;34804;49.214;12.276;2023-02-07T01:53:53;-3269.00;88.70
48994;DHT22;34804;49.214;12.276;2023-02-07T01:56:22;-3269.00;88.80
48994;DHT22;34804;49.214;12.276;2023-02-07T01:58:58;-3269.00;88.70
48994;DHT22;34804;49.214;12.276;2023-02-07T02:01:25;-3269.00;88.70
48994;DHT22;34804;49.214;12.276;2023-02-07T02:03:56;-3268.90;88.50
48994;DHT22;34804;49.214;12.276;2023-02-07T02:06:25;-3268.90;88.80
48994;DHT22;34804;49.214;12.276;2023-02-07T02:08:55;-3269.00;89.00
48994;DHT22;34804;49.214;12.276;2023-02-07T02:11:55;-3269.00;88.90
48994;DHT22;34804;49.214;12.276;2023-02-07T02:33:44;-3268.80;88.60
48994;DHT22;34804;49.214;12.276;2023-02-07T02:36:25;-3268.70;88.00
48994;DHT22;34804;49.214;12.276;2023-02-07T02:39:08;-3268.70;88.40
48994;DHT22;34804;49.214;12.276;2023-02-07T02:41:45;-3268.70;88.40
48994;DHT22;34804;49.214;12.276;2023-02-07T02:44:21;-3268.70;88.00
48994;DHT22;34804;49.214;12.276;2023-02-07T02:46:53;-3268.70;88.10
48994;DHT22;34804;49.214;12.276;2023-02-07T02:49:20;-3268.70;88.50
48994;DHT22;34804;49.214;12.276;2023-02-07T02:51:50;-3268.70;88.80
48994;DHT22;34804;49.214;12.276;2023-02-07T02:54:31;-3268.70;88.80
48994;DHT22;34804;49.214;12.276;2023-02-07T02:57:12;-3268.70;88.50
48994;DHT22;34804;49.214;12.276;2023-02-07T03:02:25;-3268.50;88.00
48994;DHT22;34804;49.214;12.276;2023-02-07T03:05:21;-3268.50;88.40
48994;DHT22;34804;49.214;12.276;2023-02-07T03:10:37;-3268.50;88.60
48994;DHT22;34804;49.214;12.276;2023-02-07T03:13:57;-3268.50;88.60
48994;DHT22;34804;49.214;12.276;2023-02-07T03:19:17;-3268.50;88.30
48994;DHT22;34804;49.214;12.276;2023-02-07T03:21:55;-3268.50;88.20
48994;DHT22;34804;49.214;12.276;2023-02-07T03:24:30;-3268.60;88.30
48994;DHT22;34804;49.214;12.276;2023-02-07T03:27:00;-3268.50;88.20
48994;DHT22;34804;49.214;12.276;2023-02-07T03:29:29;-3268.50;88.10
48994;DHT22;34804;49.214;12.276;2023-02-07T03:31:58;-3268.40;88.00
48994;DHT22;34804;49.214;12.276;2023-02-07T03:39:31;-3268.30;88.20
48994;DHT22;34804;49.214;12.276;2023-02-07T03:42:03;-3268.30;88.60
48994;DHT22;34804;49.214;12.276;2023-02-07T03:44:32;-3268.20;88.40
48994;DHT22;34804;49.214;12.276;2023-02-07T03:47:00;-3268.20;88.50
48994;DHT22;34804;49.214;12.276;2023-02-07T03:49:27;-3268.20;88.70
48994;DHT22;34804;49.214;12.276;2023-02-07T03:51:54;-3268.30;88.40
48994;DHT22;34804;49.214;12.276;2023-02-07T03:54:21;-3268.30;88.40
48994;DHT22;34804;49.214;12.276;2023-02-07T03:56:47;-3268.30;88.30
48994;DHT22;34804;49.214;12.276;2023-02-07T03:59:14;-3268.20;87.80
48994;DHT22;34804;49.214;12.276;2023-02-07T04:01:41;-3268.20;88.60
48994;DHT22;34804;49.214;12.276;2023-02-07T04:04:09;-3268.20;88.40
48994;DHT22;34804;49.214;12.276;2023-02-07T04:06:37;-3268.30;88.40
48994;DHT22;34804;49.214;12.276;2023-02-07T04:09:04;-3268.20;87.90
48994;DHT22;34804;49.214;12.276;2023-02-07T04:11:30;-3268.20;88.10
48994;DHT22;34804;49.214;12.276;2023-02-07T04:13:57;-3268.20;87.90
48994;DHT22;34804;49.214;12.276;2023-02-07T04:16:24;-3268.20;88.20
48994;DHT22;34804;49.214;12.276;2023-02-07T04:18:51;-3268.10;88.00
48994;DHT22;34804;49.214;12.276;2023-02-07T04:21:18;-3268.10;88.00
48994;DHT22;34804;49.214;12.276;2023-02-07T04:23:45;-3268.20;88.30
48994;DHT22;34804;49.214;12.276;2023-02-07T04:26:11;-3268.10;88.30
48994;DHT22;34804;49.214;12.276;2023-02-07T04:28:38;-3268.20;88.50
48994;DHT22;34804;49.214;12.276;2023-02-07T04:31:05;-3268.10;88.50
48994;DHT22;34804;49.214;12.276;2023-02-07T04:33:32;-3268.20;88.50
48994;DHT22;34804;49.214;12.276;2023-02-07T04:36:00;-3268.10;88.20
48994;DHT22;34804;49.214;12.276;2023-02-07T04:38:28;-3268.10;88.10
48994;DHT22;34804;49.214;12.276;2023-02-07T04:40:59;-3268.00;88.10
48994;DHT22;34804;49.214;12.276;2023-02-07T04:43:30;-3268.10;88.00
48994;DHT22;34804;49.214;12.276;2023-02-07T04:45:57;-3268.00;88.00
48994;DHT22;34804;49.214;12.276;2023-02-07T04:48:24;-3267.90;87.80
48994;DHT22;34804;49.214;12.276;2023-02-07T04:50:51;-3268.00;88.20
48994;DHT22;34804;49.214;12.276;2023-02-07T04:53:18;-3268.00;88.10
48994;DHT22;34804;49.214;12.276;2023-02-07T04:55:49;-3268.10;88.00
48994;DHT22;34804;49.214;12.276;2023-02-07T04:58:17;-3268.10;88.00
48994;DHT22;34804;49.214;12.276;2023-02-07T05:00:44;-3268.10;87.40
48994;DHT22;34804;49.214;12.276;2023-02-07T05:03:11;-3268.10;87.60
48994;DHT22;34804;49.214;12.276;2023-02-07T05:05:39;-3268.00;87.90
48994;DHT22;34804;49.214;12.276;2023-02-07T05:08:06;-3267.90;87.60
48994;DHT22;34804;49.214;12.276;2023-02-07T05:10:34;-3267.90;87.70
48994;DHT22;34804;49.214;12.276;2023-02-07T05:13:01;-3268.00;88.00
48994;DHT22;34804;49.214;12.276;2023-02-07T05:15:29;-3267.90;87.70
48994;DHT22;34804;49.214;12.276;2023-02-07T05:17:56;-3267.90;87.50
48994;DHT22;34804;49.214;12.276;2023-02-07T05:20:24;-3267.80;87.40
48994;DHT22;34804;49.214;12.276;2023-02-07T05:22:51;-3267.80;87.60
48994;DHT22;34804;49.214;12.276;2023-02-07T05:25:18;-3267.80;87.80
48994;DHT22;34804;49.214;12.276;2023-02-07T05:27:44;-3267.80;88.00
48994;DHT22;34804;49.214;12.276;2023-02-07T05:30:12;-3267.80;88.00
48994;DHT22;34804;49.214;12.276;2023-02-07T05:32:38;-3267.80;87.80
48994;DHT22;34804;49.214;12.276;2023-02-07T05:35:24;-3267.80;87.80
48994;DHT22;34804;49.214;12.276;2023-02-07T05:37:51;-3267.80;88.10
48994;DHT22;34804;49.214;12.276;2023-02-07T05:40:17;-3267.80;88.10
48994;DHT22;34804;49.214;12.276;2023-02-07T05:42:45;-3267.80;88.00
48994;DHT22;34804;49.214;12.276;2023-02-07T05:45:11;-3267.80;87.80
48994;DHT22;34804;49.214;12.276;2023-02-07T05:47:38;-3267.80;87.70
48994;DHT22;34804;49.214;12.276;2023-02-07T05:50:05;-3267.80;87.90
48994;DHT22;34804;49.214;12.276;2023-02-07T05:52:32;-3267.70;87.90
48994;DHT22;34804;49.214;12.276;2023-02-07T05:55:01;-3267.70;88.10
48994;DHT22;34804;49.214;12.276;2023-02-07T05:57:29;-3267.70;87.90
48994;DHT22;34804;49.214;12.276;2023-02-07T05:59:55;-3267.60;87.80
48994;DHT22;34804;49.214;12.276;2023-02-07T06:02:22;-3267.60;87.50
48994;DHT22;34804;49.214;12.276;2023-02-07T06:04:49;-3267.60;87.60
48994;DHT22;34804;49.214;12.276;2023-02-07T06:07:16;-3267.60;87.80
48994;DHT22;34804;49.214;12.276;2023-02-07T06:09:43;-3267.60;87.90
48994;DHT22;34804;49.214;12.276;2023-02-07T06:12:09;-3267.70;87.60
48994;DHT22;34804;49.214;12.276;2023-02-07T06:14:36;-3267.60;87.60
48994;DHT22;34804;49.214;12.276;2023-02-07T06:17:03;-3267.60;87.70
48994;DHT22;34804;49.214;12.276;2023-02-07T06:19:30;-3267.60;87.80
48994;DHT22;34804;49.214;12.276;2023-02-07T06:21:58;-3267.60;87.80
48994;DHT22;34804;49.214;12.276;2023-02-07T06:24:24;-3267.60;87.80
48994;DHT22;34804;49.214;12.276;2023-02-07T06:26:51;-3267.60;87.80
48994;DHT22;34804;49.214;12.276;2023-02-07T06:29:18;-3267.50;87.50
48994;DHT22;34804;49.214;12.276;2023-02-07T06:31:45;-3267.50;87.60
48994;DHT22;34804;49.214;12.276;2023-02-07T06:34:11;-3267.50;87.60
48994;DHT22;34804;49.214;12.276;2023-02-07T06:36:38;-3267.50;87.60
48994;DHT22;34804;49.214;12.276;2023-02-07T06:39:05;-3267.50;87.60
48994;DHT22;34804;49.214;12.276;2023-02-07T06:41:32;-3267.50;87.60
48994;DHT22;34804;49.214;12.276;2023-02-07T06:43:58;-3267.50;87.70
48994;DHT22;34804;49.214;12.276;2023-02-07T06:46:25;-3267.60;88.00
48994;DHT22;34804;49.214;12.276;2023-02-07T06:48:52;-3267.60;88.10
48994;DHT22;34804;49.214;12.276;2023-02-07T06:51:19;-3267.60;87.80
48994;DHT22;34804;49.214;12.276;2023-02-07T06:53:46;-3267.60;87.80
48994;DHT22;34804;49.214;12.276;2023-02-07T06:56:12;-3267.60;87.70
48994;DHT22;34804;49.214;12.276;2023-02-07T06:58:39;-3267.60;87.80
48994;DHT22;34804;49.214;12.276;2023-02-07T07:01:06;-3267.70;87.90
48994;DHT22;34804;49.214;12.276;2023-02-07T07:03:33;-3267.80;88.00
48994;DHT22;34804;49.214;12.276;2023-02-07T07:06:00;-3267.90;87.70
48994;DHT22;34804;49.214;12.276;2023-02-07T07:08:28;-3267.90;87.50
48994;DHT22;34804;49.214;12.276;2023-02-07T07:10:55;-3268.00;87.60
48994;DHT22;34804;49.214;12.276;2023-02-07T07:13:22;-3268.10;87.40
48994;DHT22;34804;49.214;12.276;2023-02-07T07:15:49;-3268.20;87.40
48994;DHT22;34804;49.214;12.276;2023-02-07T07:18:16;-3268.20;86.60
48994;DHT22;34804;49.214;12.276;2023-02-07T07:20:42;-3268.20;86.80
48994;DHT22;34804;49.214;12.276;2023-02-07T07:23:09;-3268.10;86.90
48994;DHT22;34804;49.214;12.276;2023-02-07T07:25:36;-3268.20;87.20
48994;DHT22;34804;49.214;12.276;2023-02-07T07:28:03;-3268.20;87.30
48994;DHT22;34804;49.214;12.276;2023-02-07T07:30:30;-3268.20;87.30
48994;DHT22;34804;49.214;12.276;2023-02-07T07:32:58;-3268.30;87.40
48994;DHT22;34804;49.214;12.276;2023-02-07T07:35:24;-3268.40;87.50
48994;DHT22;34804;49.214;12.276;2023-02-07T07:37:51;-3268.50;87.70
48994;DHT22;34804;49.214;12.276;2023-02-07T07:40:18;-3268.60;87.80
48994;DHT22;34804;49.214;12.276;2023-02-07T07:42:45;-3268.70;88.00
48994;DHT22;34804;49.214;12.276;2023-02-07T07:45:12;-3268.80;88.10
48994;DHT22;34804;49.214;12.276;2023-02-07T07:47:39;-3268.90;87.90
48994;DHT22;34804;49.214;12.276;2023-02-07T07:50:06;-3268.90;87.90
48994;DHT22;34804;49.214;12.276;2023-02-07T07:52:33;-3269.00;87.90
48994;DHT22;34804;49.214;12.276;2023-02-07T07:55:00;-3269.00;88.00
48994;DHT22;34804;49.214;12.276;2023-02-07T07:57:27;-3269.10;88.30
48994;DHT22;34804;49.214;12.276;2023-02-07T07:59:54;-3269.20;88.50
48994;DHT22;34804;49.214;12.276;2023-02-07T08:02:21;-3269.30;88.50
48994;DHT22;34804;49.214;12.276;2023-02-07T08:04:50;-3269.40;88.50
48994;DHT22;34804;49.214;12.276;2023-02-07T08:07:17;-3269.50;88.70
48994;DHT22;34804;49.214;12.276;2023-02-07T08:09:44;-3269.60;88.60
48994;DHT22;34804;49.214;12.276;2023-02-07T08:12:11;-3269.70;88.60
48994;DHT22;34804;49.214;12.276;2023-02-07T08:14:37;-3269.90;88.80
48994;DHT22;34804;49.214;12.276;2023-02-07T08:17:04;-3270.00;89.00
48994;DHT22;34804;49.214;12.276;2023-02-07T08:19:31;-3270.10;89.00
48994;DHT22;34804;49.214;12.276;2023-02-07T08:21:58;-3270.20;89.10
48994;DHT22;34804;49.214;12.276;2023-02-07T08:24:24;-3270.40;89.20
48994;DHT22;34804;49.214;12.276;2023-02-07T08:26:53;-3270.50;89.10
48994;DHT22;34804;49.214;12.276;2023-02-07T08:29:20;-3270.70;88.90
48994;DHT22;34804;49.214;12.276;2023-02-07T08:31:47;-3270.80;88.70
48994;DHT22;34804;49.214;12.276;2023-02-07T08:34:15;-3270.90;88.30
48994;DHT22;34804;49.214;12.276;2023-02-07T08:36:43;-3271.00;88.40
48994;DHT22;34804;49.214;12.276;2023-02-07T08:39:10;-3271.20;88.60
48994;DHT22;34804;49.214;12.276;2023-02-07T08:41:37;-3271.30;88.30
48994;DHT22;34804;49.214;12.276;2023-02-07T08:44:04;-3271.50;88.50
48994;DHT22;34804;49.214;12.276;2023-02-07T08:46:31;-3271.60;88.10
48994;DHT22;34804;49.214;12.276;2023-02-07T08:48:58;-3271.70;87.80
48994;DHT22;34804;49.214;12.276;2023-02-07T08:51:24;-3271.70;87.10
48994;DHT22;34804;49.214;12.276;2023-02-07T08:53:52;-3271.70;87.30
48994;DHT22;34804;49.214;12.276;2023-02-07T08:56:19;-3271.90;87.40
48994;DHT22;34804;49.214;12.276;2023-02-07T08:58:46;-3271.90;87.10
48994;DHT22;34804;49.214;12.276;2023-02-07T09:01:13;-3271.90;87.50
48994;DHT22;34804;49.214;12.276;2023-02-07T09:03:39;-3272.00;87.30
48994;DHT22;34804;49.214;12.276;2023-02-07T09:06:07;-3272.10;87.00
48994;DHT22;34804;49.214;12.276;2023-02-07T09:08:34;-3272.10;86.80
48994;DHT22;34804;49.214;12.276;2023-02-07T09:11:01;-3272.10;86.80
48994;DHT22;34804;49.214;12.276;2023-02-07T09:13:28;-3272.20;86.70
48994;DHT22;34804;49.214;12.276;2023-02-07T09:15:56;-3272.30;86.60
48994;DHT22;34804;49.214;12.276;2023-02-07T09:18:23;-3272.40;86.60
48994;DHT22;34804;49.214;12.276;2023-02-07T09:20:51;-3272.40;86.10
48994;DHT22;34804;49.214;12.276;2023-02-07T09:23:18;-3272.30;85.90
48994;DHT22;34804;49.214;12.276;2023-02-07T09:25:47;-3272.40;86.20
48994;DHT22;34804;49.214;12.276;2023-02-07T09:28:15;-3272.50;86.50
48994;DHT22;34804;49.214;12.276;2023-02-07T09:30:43;-3272.70;86.60
48994;DHT22;34804;49.214;12.276;2023-02-07T09:33:11;-3272.70;85.90
48994;DHT22;34804;49.214;12.276;2023-02-07T09:35:40;-3272.80;85.70
48994;DHT22;34804;49.214;12.276;2023-02-07T09:38:13;-3272.80;85.60
48994;DHT22;34804;49.214;12.276;2023-02-07T09:40:40;-3272.90;86.00
48994;DHT22;34804;49.214;12.276;2023-02-07T09:45:53;-3273.20;84.90
48994;DHT22;34804;49.214;12.276;2023-02-07T09:48:32;-3273.20;84.80
48994;DHT22;34804;49.214;12.276;2023-02-07T09:51:04;-3273.30;84.70
48994;DHT22;34804;49.214;12.276;2023-02-07T09:53:39;-3273.20;84.30
48994;DHT22;34804;49.214;12.276;2023-02-07T09:56:09;-3273.40;84.90
48994;DHT22;34804;49.214;12.276;2023-02-07T10:01:31;-3273.70;84.00
48994;DHT22;34804;49.214;12.276;2023-02-07T10:06:28;-3274.10;83.90
48994;DHT22;34804;49.214;12.276;2023-02-07T10:08:57;-3274.30;83.80
48994;DHT22;34804;49.214;12.276;2023-02-07T10:11:46;-3274.40;83.10
48994;DHT22;34804;49.214;12.276;2023-02-07T10:17:43;-3274.60;81.20
48994;DHT22;34804;49.214;12.276;2023-02-07T10:20:24;-3274.80;81.00
48994;DHT22;34804;49.214;12.276;2023-02-07T10:23:10;-3275.00;81.10
48994;DHT22;34804;49.214;12.276;2023-02-07T10:28:45;-3275.10;80.90
48994;DHT22;34804;49.214;12.276;2023-02-07T10:31:15;-3275.20;79.80
48994;DHT22;34804;49.214;12.276;2023-02-07T10:33:53;-3275.20;79.60
48994;DHT22;34804;49.214;12.276;2023-02-07T10:36:24;-3275.40;79.40
48994;DHT22;34804;49.214;12.276;2023-02-07T10:39:14;-3275.60;80.00
48994;DHT22;34804;49.214;12.276;2023-02-07T10:41:42;-3275.80;78.50
48994;DHT22;34804;49.214;12.276;2023-02-07T10:44:19;-3275.80;78.10
48994;DHT22;34804;49.214;12.276;2023-02-07T10:47:02;-3276.10;77.00
48994;DHT22;34804;49.214;12.276;2023-02-07T10:49:36;-3276.00;77.50
48994;DHT22;34804;49.214;12.276;2023-02-07T10:54:50;-3276.20;76.40
48994;DHT22;34804;49.214;12.276;2023-02-07T10:57:19;-3276.40;76.30
48994;DHT22;34804;49.214;12.276;2023-02-07T10:59:46;-3276.40;75.50
48994;DHT22;34804;49.214;12.276;2023-02-07T11:02:36;-3276.40;76.10
48994;DHT22;34804;49.214;12.276;2023-02-07T11:08:16;-3276.50;74.50
48994;DHT22;34804;49.214;12.276;2023-02-07T11:10:46;0.00;76.10
48994;DHT22;34804;49.214;12.276;2023-02-07T11:13:22;0.40;74.20
48994;DHT22;34804;49.214;12.276;2023-02-07T11:18:43;0.80;71.60
48994;DHT22;34804;49.214;12.276;2023-02-07T11:21:37;0.70;72.10
48994;DHT22;34804;49.214;12.276;2023-02-07T11:24:24;0.80;70.70
48994;DHT22;34804;49.214;12.276;2023-02-07T11:29:43;0.60;69.50
48994;DHT22;34804;49.214;12.276;2023-02-07T11:32:15;0.80;70.80
48994;DHT22;34804;49.214;12.276;2023-02-07T11:34:47;1.10;70.10
48994;DHT22;34804;49.214;12.276;2023-02-07T11:37:27;1.00;69.70
48994;DHT22;34804;49.214;12.276;2023-02-07T11:42:42;1.10;67.50
48994;DHT22;34804;49.214;12.276;2023-02-07T11:45:14;1.40;67.20
48994;DHT22;34804;49.214;12.276;2023-02-07T11:47:43;1.30;66.10
48994;DHT22;34804;49.214;12.276;2023-02-07T11:50:19;1.30;64.40
48994;DHT22;34804;49.214;12.276;2023-02-07T11:52:54;1.40;66.20
48994;DHT22;34804;49.214;12.276;2023-02-07T11:55:30;1.60;65.90
48994;DHT22;34804;49.214;12.276;2023-02-07T11:58:07;1.80;65.70
48994;DHT22;34804;49.214;12.276;2023-02-07T12:00:36;1.80;65.50
48994;DHT22;34804;49.214;12.276;2023-02-07T12:03:07;2.00;64.30
48994;DHT22;34804;49.214;12.276;2023-02-07T12:05:38;2.10;64.90
48994;DHT22;34804;49.214;12.276;2023-02-07T12:08:12;2.20;63.20
48994;DHT22;34804;49.214;12.276;2023-02-07T12:10:44;2.20;62.40
48994;DHT22;34804;49.214;12.276;2023-02-07T12:13:36;2.10;60.50
48994;DHT22;34804;49.214;12.276;2023-02-07T12:18:44;2.60;62.40
48994;DHT22;34804;49.214;12.276;2023-02-07T12:21:26;2.70;60.90
48994;DHT22;34804;49.214;12.276;2023-02-07T12:24:00;2.80;63.20
48994;DHT22;34804;49.214;12.276;2023-02-07T12:26:39;2.90;59.20
48994;DHT22;34804;49.214;12.276;2023-02-07T12:34:32;3.20;57.00
48994;DHT22;34804;49.214;12.276;2023-02-07T12:42:40;4.40;54.30
48994;DHT22;34804;49.214;12.276;2023-02-07T12:45:14;5.00;53.00
48994;DHT22;34804;49.214;12.276;2023-02-07T12:47:49;5.80;53.30
48994;DHT22;34804;49.214;12.276;2023-02-07T12:50:27;6.40;49.60
48994;DHT22;34804;49.214;12.276;2023-02-07T12:55:59;7.20;46.20
48994;DHT22;34804;49.214;12.276;2023-02-07T12:58:59;6.70;49.50
48994;DHT22;34804;49.214;12.276;2023-02-07T13:06:45;7.00;45.60
48994;DHT22;34804;49.214;12.276;2023-02-07T13:12:32;8.80;42.40
48994;DHT22;34804;49.214;12.276;2023-02-07T13:18:10;9.40;39.60
48994;DHT22;34804;49.214;12.276;2023-02-07T13:21:01;9.50;40.10
48994;DHT22;34804;49.214;12.276;2023-02-07T13:23:34;8.90;40.20
48994;DHT22;34804;49.214;12.276;2023-02-07T13:26:07;9.80;40.60
48994;DHT22;34804;49.214;12.276;2023-02-07T13:31:13;10.00;37.80
48994;DHT22;34804;49.214;12.276;2023-02-07T13:33:41;10.40;37.40
48994;DHT22;34804;49.214;12.276;2023-02-07T13:36:42;10.40;39.10
48994;DHT22;34804;49.214;12.276;2023-02-07T13:42:25;10.30;37.50
48994;DHT22;34804;49.214;12.276;2023-02-07T13:47:56;10.90;34.50
48994;DHT22;34804;49.214;12.276;2023-02-07T13:50:34;10.70;34.30
48994;DHT22;34804;49.214;12.276;2023-02-07T13:56:07;10.70;35.00
48994;DHT22;34804;49.214;12.276;2023-02-07T14:01:22;10.60;36.10
48994;DHT22;34804;49.214;12.276;2023-02-07T14:04:05;11.50;33.70
48994;DHT22;34804;49.214;12.276;2023-02-07T14:06:38;11.40;32.60
48994;DHT22;34804;49.214;12.276;2023-02-07T14:09:19;11.60;34.00
48994;DHT22;34804;49.214;12.276;2023-02-07T14:11:56;11.50;33.10
48994;DHT22;34804;49.214;12.276;2023-02-07T14:14:28;10.60;33.40
48994;DHT22;34804;49.214;12.276;2023-02-07T14:19:48;10.90;33.10
48994;DHT22;34804;49.214;12.276;2023-02-07T14:22:25;10.70;34.50
48994;DHT22;34804;49.214;12.276;2023-02-07T14:27:35;10.90;34.60
48994;DHT22;34804;49.214;12.276;2023-02-07T14:32:42;11.30;34.10
48994;DHT22;34804;49.214;12.276;2023-02-07T14:38:01;10.40;33.90
48994;DHT22;34804;49.214;12.276;2023-02-07T14:46:03;10.80;35.20
48994;DHT22;34804;49.214;12.276;2023-02-07T14:48:50;11.00;35.20
48994;DHT22;34804;49.214;12.276;2023-02-07T14:51:23;11.90;33.10
48994;DHT22;34804;49.214;12.276;2023-02-07T14:54:12;11.50;32.30
48994;DHT22;34804;49.214;12.276;2023-02-07T14:56:50;11.50;32.30
48994;DHT22;34804;49.214;12.276;2023-02-07T14:59:34;11.90;32.20
48994;DHT22;34804;49.214;12.276;2023-02-07T15:07:39;11.20;34.80
48994;DHT22;34804;49.214;12.276;2023-02-07T15:10:20;11.90;32.60
48994;DHT22;34804;49.214;12.276;2023-02-07T15:12:49;11.50;32.70
48994;DHT22;34804;49.214;12.276;2023-02-07T15:15:43;10.60;34.80
48994;DHT22;34804;49.214;12.276;2023-02-07T15:18:15;9.30;39.60
48994;DHT22;34804;49.214;12.276;2023-02-07T15:20:48;8.00;43.00
48994;DHT22;34804;49.214;12.276;2023-02-07T15:23:16;7.30;43.10
48994;DHT22;34804;49.214;12.276;2023-02-07T15:25:43;7.00;44.60
48994;DHT22;34804;49.214;12.276;2023-02-07T15:31:14;6.20;47.70
48994;DHT22;34804;49.214;12.276;2023-02-07T15:34:03;5.50;50.60
48994;DHT22;34804;49.214;12.276;2023-02-07T15:39:04;5.30;51.60
48994;DHT22;34804;49.214;12.276;2023-02-07T15:41:31;5.50;50.50
48994;DHT22;34804;49.214;12.276;2023-02-07T15:44:07;5.40;51.00
48994;DHT22;34804;49.214;12.276;2023-02-07T15:46:45;4.80;53.40
48994;DHT22;34804;49.214;12.276;2023-02-07T15:49:41;4.30;53.70
48994;DHT22;34804;49.214;12.276;2023-02-07T15:52:21;3.80;55.00
48994;DHT22;34804;49.214;12.276;2023-02-07T15:54:51;3.30;56.00
48994;DHT22;34804;49.214;12.276;2023-02-07T15:57:28;3.10;56.60
48994;DHT22;34804;49.214;12.276;2023-02-07T16:00:04;2.80;56.80
48994;DHT22;34804;49.214;12.276;2023-02-07T16:02:34;2.60;58.20
48994;DHT22;34804;49.214;12.276;2023-02-07T16:05:19;2.30;58.20
48994;DHT22;34804;49.214;12.276;2023-02-07T16:07:47;2.10;59.30
48994;DHT22;34804;49.214;12.276;2023-02-07T16:13:21;1.80;61.00
48994;DHT22;34804;49.214;12.276;2023-02-07T16:15:57;1.60;61.60
48994;DHT22;34804;49.214;12.276;2023-02-07T16:18:40;1.60;61.00
48994;DHT22;34804;49.214;12.276;2023-02-07T16:21:25;1.40;61.30
48994;DHT22;34804;49.214;12.276;2023-02-07T16:24:07;1.20;61.70
48994;DHT22;34804;49.214;12.276;2023-02-07T16:26:35;1.10;61.90
48994;DHT22;34804;49.214;12.276;2023-02-07T16:29:06;0.90;61.90
48994;DHT22;34804;49.214;12.276;2023-02-07T16:31:33;0.80;62.80
48994;DHT22;34804;49.214;12.276;2023-02-07T16:34:01;0.70;63.70
48994;DHT22;34804;49.214;12.276;2023-02-07T16:36:28;0.60;64.10
48994;DHT22;34804;49.214;12.276;2023-02-07T16:38:54;0.40;64.40
48994;DHT22;34804;49.214;12.276;2023-02-07T16:41:26;0.30;64.60
48994;DHT22;34804;49.214;12.276;2023-02-07T16:44:01;0.20;64.80
48994;DHT22;34804;49.214;12.276;2023-02-07T16:46:30;0.10;65.80
48994;DHT22;34804;49.214;12.276;2023-02-07T16:48:57;0.00;66.50
48994;DHT22;34804;49.214;12.276;2023-02-07T16:51:24;-3276.70;66.60
48994;DHT22;34804;49.214;12.276;2023-02-07T16:53:51;-3276.60;68.00
48994;DHT22;34804;49.214;12.276;2023-02-07T16:56:24;-3276.30;70.80
48994;DHT22;34804;49.214;12.276;2023-02-07T16:58:52;-3276.20;71.50
48994;DHT22;34804;49.214;12.276;2023-02-07T17:01:20;-3276.00;72.30
48994;DHT22;34804;49.214;12.276;2023-02-07T17:03:47;-3275.80;73.10
48994;DHT22;34804;49.214;12.276;2023-02-07T17:06:15;-3275.70;73.70
48994;DHT22;34804;49.214;12.276;2023-02-07T17:08:43;-3275.70;74.10
48994;DHT22;34804;49.214;12.276;2023-02-07T17:11:19;-3275.60;74.80
48994;DHT22;34804;49.214;12.276;2023-02-07T17:13:54;-3275.50;75.70
48994;DHT22;34804;49.214;12.276;2023-02-07T17:16:22;-3275.40;76.20
48994;DHT22;34804;49.214;12.276;2023-02-07T17:18:50;-3275.40;76.40
48994;DHT22;34804;49.214;12.276;2023-02-07T17:21:17;-3275.30;77.10
48994;DHT22;34804;49.214;12.276;2023-02-07T17:23:45;-3275.20;77.70